sensor_id;sensor_type;location;lat;lon;timestamp;temperature;humidity
61253;DHT22;47127;47.516;8.596;2023-09-30T00:00:58;20.70;99.90
61253;DHT22;47127;47.516;8.596;2023-09-30T00:03:25;18.70;99.90
61253;DHT22;47127;47.516;8.596;2023-09-30T00:05:50;18.70;99.90
61253;DHT22;47127;47.516;8.596;2023-09-30T00:08:16;18.60;99.90
61253;DHT22;47127;47.516;8.596;2023-09-30T00:10:42;18.60;99.90
61253;DHT22;47127;47.516;8.596;2023-09-30T00:13:07;18.50;99.90
61253;DHT22;47127;47.516;8.596;2023-09-30T00:15:33;18.50;99.90
61253;DHT22;47127;47.516;8.596;2023-09-30T00:17:59;18.40;99.90
61253;DHT22;47127;47.516;8.596;2023-09-30T00:20:27;18.40;99.90
61253;DHT22;47127;47.516;8.596;2023-09-30T00:22:52;18.40;99.90
61253;DHT22;47127;47.516;8.596;2023-09-30T00:25:18;18.50;99.90
61253;DHT22;47127;47.516;8.596;2023-09-30T00:27:44;18.50;99.90
61253;DHT22;47127;47.516;8.596;2023-09-30T00:30:10;18.50;99.90
61253;DHT22;47127;47.516;8.596;2023-09-30T00:32:35;18.50;99.90
61253;DHT22;47127;47.516;8.596;2023-09-30T00:35:02;18.60;99.90
61253;DHT22;47127;47.516;8.596;2023-09-30T00:37:28;18.60;99.90
61253;DHT22;47127;47.516;8.596;2023-09-30T00:39:55;18.60;99.90
61253;DHT22;47127;47.516;8.596;2023-09-30T00:42:21;18.60;99.90
61253;DHT22;47127;47.516;8.596;2023-09-30T00:44:46;18.60;99.90
61253;DHT22;47127;47.516;8.596;2023-09-30T00:47:14;18.50;99.90
61253;DHT22;47127;47.516;8.596;2023-09-30T00:49:40;18.50;99.90
61253;DHT22;47127;47.516;8.596;2023-09-30T00:52:07;18.50;99.90
61253;DHT22;47127;47.516;8.596;2023-09-30T00:54:33;18.50;99.90
61253;DHT22;47127;47.516;8.596;2023-09-30T00:57:00;18.30;99.90
61253;DHT22;47127;47.516;8.596;2023-09-30T00:59:27;18.30;99.90
61253;DHT22;47127;47.516;8.596;2023-09-30T01:01:54;18.30;99.90
61253;DHT22;47127;47.516;8.596;2023-09-30T01:04:23;18.20;99.90
61253;DHT22;47127;47.516;8.596;2023-09-30T01:06:49;18.20;99.90
61253;DHT22;47127;47.516;8.596;2023-09-30T01:09:14;18.20;99.90
61253;DHT22;47127;47.516;8.596;2023-09-30T01:11:40;18.20;99.90
61253;DHT22;47127;47.516;8.596;2023-09-30T01:14:24;18.30;99.90
61253;DHT22;47127;47.516;8.596;2023-09-30T01:16:49;18.30;99.90
61253;DHT22;47127;47.516;8.596;2023-09-30T01:19:16;18.30;99.90
61253;DHT22;47127;47.516;8.596;2023-09-30T01:21:41;18.20;99.90
61253;DHT22;47127;47.516;8.596;2023-09-30T01:24:07;18.10;99.90
61253;DHT22;47127;47.516;8.596;2023-09-30T01:26:33;18.10;99.90
61253;DHT22;47127;47.516;8.596;2023-09-30T01:28:58;18.10;99.90
61253;DHT22;47127;47.516;8.596;2023-09-30T01:31:24;18.10;99.90
61253;DHT22;47127;47.516;8.596;2023-09-30T01:33:50;18.00;99.90
61253;DHT22;47127;47.516;8.596;2023-09-30T01:36:19;17.90;99.90
61253;DHT22;47127;47.516;8.596;2023-09-30T01:38:45;17.80;99.90
61253;DHT22;47127;47.516;8.596;2023-09-30T01:41:11;17.80;99.90
61253;DHT22;47127;47.516;8.596;2023-09-30T01:43:36;17.80;99.90
61253;DHT22;47127;47.516;8.596;2023-09-30T01:46:03;17.80;99.90
61253;DHT22;47127;47.516;8.596;2023-09-30T01:48:30;17.90;99.90
61253;DHT22;47127;47.516;8.596;2023-09-30T01:50:56;18.00;99.90
61253;DHT22;47127;47.516;8.596;2023-09-30T01:53:21;18.00;99.90
61253;DHT22;47127;47.516;8.596;2023-09-30T01:55:47;18.00;99.90
61253;DHT22;47127;47.516;8.596;2023-09-30T01:58:13;18.00;99.90
61253;DHT22;47127;47.516;8.596;2023-09-30T02:00:38;18.00;99.90
61253;DHT22;47127;47.516;8.596;2023-09-30T02:03:04;17.90;99.90
61253;DHT22;47127;47.516;8.596;2023-09-30T02:05:30;17.90;99.90
61253;DHT22;47127;47.516;8.596;2023-09-30T02:07:55;17.80;99.90
61253;DHT22;47127;47.516;8.596;2023-09-30T02:10:21;17.80;99.90
61253;DHT22;47127;47.516;8.596;2023-09-30T02:12:47;17.80;99.90
61253;DHT22;47127;47.516;8.596;2023-09-30T02:15:13;17.70;99.90
61253;DHT22;47127;47.516;8.596;2023-09-30T02:17:39;17.80;99.90
61253;DHT22;47127;47.516;8.596;2023-09-30T02:20:06;17.80;99.90
61253;DHT22;47127;47.516;8.596;2023-09-30T02:22:38;17.90;99.90
61253;DHT22;47127;47.516;8.596;2023-09-30T02:25:05;17.90;99.90
61253;DHT22;47127;47.516;8.596;2023-09-30T02:27:33;17.90;99.90
61253;DHT22;47127;47.516;8.596;2023-09-30T02:29:59;17.90;99.90
61253;DHT22;47127;47.516;8.596;2023-09-30T02:32:25;17.90;99.90
61253;DHT22;47127;47.516;8.596;2023-09-30T02:34:50;17.90;99.90
61253;DHT22;47127;47.516;8.596;2023-09-30T02:37:16;17.90;99.90
61253;DHT22;47127;47.516;8.596;2023-09-30T02:39:43;18.00;99.90
61253;DHT22;47127;47.516;8.596;2023-09-30T02:42:10;17.80;99.90
61253;DHT22;47127;47.516;8.596;2023-09-30T02:44:35;17.70;99.90
61253;DHT22;47127;47.516;8.596;2023-09-30T02:47:01;17.60;99.90
61253;DHT22;47127;47.516;8.596;2023-09-30T02:49:27;17.70;99.90
61253;DHT22;47127;47.516;8.596;2023-09-30T02:51:53;17.70;99.90
61253;DHT22;47127;47.516;8.596;2023-09-30T02:54:18;17.80;99.90
61253;DHT22;47127;47.516;8.596;2023-09-30T02:56:44;17.80;99.90
61253;DHT22;47127;47.516;8.596;2023-09-30T02:59:12;17.90;99.90
61253;DHT22;47127;47.516;8.596;2023-09-30T03:01:38;17.90;99.90
61253;DHT22;47127;47.516;8.596;2023-09-30T03:04:03;17.90;99.90
61253;DHT22;47127;47.516;8.596;2023-09-30T03:06:35;17.90;99.90
61253;DHT22;47127;47.516;8.596;2023-09-30T03:09:04;17.90;99.90
61253;DHT22;47127;47.516;8.596;2023-09-30T03:11:31;17.90;99.90
61253;DHT22;47127;47.516;8.596;2023-09-30T03:13:57;17.80;99.90
61253;DHT22;47127;47.516;8.596;2023-09-30T03:16:23;17.70;99.90
61253;DHT22;47127;47.516;8.596;2023-09-30T03:18:50;17.60;99.90
61253;DHT22;47127;47.516;8.596;2023-09-30T03:21:16;17.60;99.90
61253;DHT22;47127;47.516;8.596;2023-09-30T03:23:42;17.60;99.90
61253;DHT22;47127;47.516;8.596;2023-09-30T03:26:08;17.70;99.90
61253;DHT22;47127;47.516;8.596;2023-09-30T03:28:36;17.70;99.90
61253;DHT22;47127;47.516;8.596;2023-09-30T03:31:03;17.70;99.90
61253;DHT22;47127;47.516;8.596;2023-09-30T03:33:37;17.80;99.90
61253;DHT22;47127;47.516;8.596;2023-09-30T03:36:03;17.70;99.90
61253;DHT22;47127;47.516;8.596;2023-09-30T03:38:30;17.70;99.90
61253;DHT22;47127;47.516;8.596;2023-09-30T03:40:56;17.70;99.90
61253;DHT22;47127;47.516;8.596;2023-09-30T03:43:24;17.80;99.90
61253;DHT22;47127;47.516;8.596;2023-09-30T03:45:50;17.70;99.90
61253;DHT22;47127;47.516;8.596;2023-09-30T03:48:16;17.80;99.90
61253;DHT22;47127;47.516;8.596;2023-09-30T03:50:43;17.80;99.90
61253;DHT22;47127;47.516;8.596;2023-09-30T03:53:09;17.80;99.90
61253;DHT22;47127;47.516;8.596;2023-09-30T03:55:37;17.80;99.90
61253;DHT22;47127;47.516;8.596;2023-09-30T03:58:02;17.80;99.90
61253;DHT22;47127;47.516;8.596;2023-09-30T04:00:29;17.70;99.90
61253;DHT22;47127;47.516;8.596;2023-09-30T04:02:54;17.60;99.90
61253;DHT22;47127;47.516;8.596;2023-09-30T04:05:24;17.70;99.90
61253;DHT22;47127;47.516;8.596;2023-09-30T04:07:59;17.70;99.90
61253;DHT22;47127;47.516;8.596;2023-09-30T04:10:25;17.70;99.90
61253;DHT22;47127;47.516;8.596;2023-09-30T04:12:51;17.70;99.90
61253;DHT22;47127;47.516;8.596;2023-09-30T04:15:18;17.70;99.90
61253;DHT22;47127;47.516;8.596;2023-09-30T04:17:44;17.70;99.90
61253;DHT22;47127;47.516;8.596;2023-09-30T04:20:10;17.70;99.90
61253;DHT22;47127;47.516;8.596;2023-09-30T04:22:41;17.70;99.90
61253;DHT22;47127;47.516;8.596;2023-09-30T04:25:11;17.70;99.90
61253;DHT22;47127;47.516;8.596;2023-09-30T04:27:38;17.80;99.90
61253;DHT22;47127;47.516;8.596;2023-09-30T04:30:04;17.80;99.90
61253;DHT22;47127;47.516;8.596;2023-09-30T04:32:36;17.70;99.90
61253;DHT22;47127;47.516;8.596;2023-09-30T04:35:03;17.60;99.90
61253;DHT22;47127;47.516;8.596;2023-09-30T04:37:29;17.60;99.90
61253;DHT22;47127;47.516;8.596;2023-09-30T04:39:55;17.70;99.90
61253;DHT22;47127;47.516;8.596;2023-09-30T04:42:20;17.70;99.90
61253;DHT22;47127;47.516;8.596;2023-09-30T04:44:46;17.60;99.90
61253;DHT22;47127;47.516;8.596;2023-09-30T04:47:11;17.50;99.90
61253;DHT22;47127;47.516;8.596;2023-09-30T04:49:38;17.40;99.90
61253;DHT22;47127;47.516;8.596;2023-09-30T04:52:04;17.30;99.90
61253;DHT22;47127;47.516;8.596;2023-09-30T04:54:32;17.20;99.90
61253;DHT22;47127;47.516;8.596;2023-09-30T04:57:01;17.20;99.90
61253;DHT22;47127;47.516;8.596;2023-09-30T04:59:27;17.20;99.90
61253;DHT22;47127;47.516;8.596;2023-09-30T05:01:53;17.20;99.90
61253;DHT22;47127;47.516;8.596;2023-09-30T05:04:20;17.30;99.90
61253;DHT22;47127;47.516;8.596;2023-09-30T05:06:45;17.40;99.90
61253;DHT22;47127;47.516;8.596;2023-09-30T05:09:11;17.40;99.90
61253;DHT22;47127;47.516;8.596;2023-09-30T05:11:37;17.30;99.90
61253;DHT22;47127;47.516;8.596;2023-09-30T05:14:04;17.30;99.90
61253;DHT22;47127;47.516;8.596;2023-09-30T05:16:31;17.20;99.90
61253;DHT22;47127;47.516;8.596;2023-09-30T05:18:57;17.20;99.90
61253;DHT22;47127;47.516;8.596;2023-09-30T05:21:22;17.20;99.90
61253;DHT22;47127;47.516;8.596;2023-09-30T05:23:48;17.30;99.90
61253;DHT22;47127;47.516;8.596;2023-09-30T05:26:15;17.20;99.90
61253;DHT22;47127;47.516;8.596;2023-09-30T05:28:42;17.20;99.90
61253;DHT22;47127;47.516;8.596;2023-09-30T05:31:08;17.20;99.90
61253;DHT22;47127;47.516;8.596;2023-09-30T05:33:33;17.20;99.90
61253;DHT22;47127;47.516;8.596;2023-09-30T05:35:59;17.20;99.90
61253;DHT22;47127;47.516;8.596;2023-09-30T05:38:28;17.20;99.90
61253;DHT22;47127;47.516;8.596;2023-09-30T05:40:54;17.20;99.90
61253;DHT22;47127;47.516;8.596;2023-09-30T05:43:20;17.20;99.90
61253;DHT22;47127;47.516;8.596;2023-09-30T05:45:47;17.10;99.90
61253;DHT22;47127;47.516;8.596;2023-09-30T05:48:20;17.10;99.90
61253;DHT22;47127;47.516;8.596;2023-09-30T05:50:46;17.10;99.90
61253;DHT22;47127;47.516;8.596;2023-09-30T05:53:13;17.10;99.90
61253;DHT22;47127;47.516;8.596;2023-09-30T05:55:39;17.10;99.90
61253;DHT22;47127;47.516;8.596;2023-09-30T05:58:07;17.20;99.90
61253;DHT22;47127;47.516;8.596;2023-09-30T06:00:33;17.30;99.90
61253;DHT22;47127;47.516;8.596;2023-09-30T06:03:01;17.20;99.90
61253;DHT22;47127;47.516;8.596;2023-09-30T06:05:28;17.30;99.90
61253;DHT22;47127;47.516;8.596;2023-09-30T06:07:57;17.30;99.90
61253;DHT22;47127;47.516;8.596;2023-09-30T06:10:23;17.40;99.90
61253;DHT22;47127;47.516;8.596;2023-09-30T06:12:50;17.40;99.90
61253;DHT22;47127;47.516;8.596;2023-09-30T06:15:20;17.50;99.90
61253;DHT22;47127;47.516;8.596;2023-09-30T06:17:48;17.40;99.90
61253;DHT22;47127;47.516;8.596;2023-09-30T06:20:15;17.30;99.90
61253;DHT22;47127;47.516;8.596;2023-09-30T06:22:43;17.20;99.90
61253;DHT22;47127;47.516;8.596;2023-09-30T06:25:11;17.20;99.90
61253;DHT22;47127;47.516;8.596;2023-09-30T06:27:37;17.20;99.90
61253;DHT22;47127;47.516;8.596;2023-09-30T06:30:04;17.20;99.90
61253;DHT22;47127;47.516;8.596;2023-09-30T06:32:30;17.20;99.90
61253;DHT22;47127;47.516;8.596;2023-09-30T06:34:56;17.30;99.90
61253;DHT22;47127;47.516;8.596;2023-09-30T06:37:21;17.40;99.90
61253;DHT22;47127;47.516;8.596;2023-09-30T06:39:47;17.40;99.90
61253;DHT22;47127;47.516;8.596;2023-09-30T06:42:13;17.40;99.90
61253;DHT22;47127;47.516;8.596;2023-09-30T06:44:39;17.50;99.90
61253;DHT22;47127;47.516;8.596;2023-09-30T06:47:05;17.50;99.90
61253;DHT22;47127;47.516;8.596;2023-09-30T06:49:34;17.60;99.90
61253;DHT22;47127;47.516;8.596;2023-09-30T06:51:59;17.60;99.90
61253;DHT22;47127;47.516;8.596;2023-09-30T06:54:25;17.70;99.90
61253;DHT22;47127;47.516;8.596;2023-09-30T06:56:50;17.80;99.90
61253;DHT22;47127;47.516;8.596;2023-09-30T06:59:16;17.80;99.90
61253;DHT22;47127;47.516;8.596;2023-09-30T07:01:41;17.80;99.90
61253;DHT22;47127;47.516;8.596;2023-09-30T07:04:07;17.90;99.90
61253;DHT22;47127;47.516;8.596;2023-09-30T07:06:32;17.90;99.90
61253;DHT22;47127;47.516;8.596;2023-09-30T07:08:58;18.00;99.90
61253;DHT22;47127;47.516;8.596;2023-09-30T07:11:28;18.00;99.90
61253;DHT22;47127;47.516;8.596;2023-09-30T07:13:54;17.90;99.90
61253;DHT22;47127;47.516;8.596;2023-09-30T07:16:20;17.90;99.90
61253;DHT22;47127;47.516;8.596;2023-09-30T07:18:45;17.90;99.90
61253;DHT22;47127;47.516;8.596;2023-09-30T07:21:12;17.80;99.90
61253;DHT22;47127;47.516;8.596;2023-09-30T07:23:38;17.90;99.90
61253;DHT22;47127;47.516;8.596;2023-09-30T07:26:03;18.00;99.90
61253;DHT22;47127;47.516;8.596;2023-09-30T07:28:29;18.10;99.90
61253;DHT22;47127;47.516;8.596;2023-09-30T07:30:55;18.10;99.90
61253;DHT22;47127;47.516;8.596;2023-09-30T07:33:20;18.20;99.90
61253;DHT22;47127;47.516;8.596;2023-09-30T07:35:46;18.20;99.90
61253;DHT22;47127;47.516;8.596;2023-09-30T07:38:12;18.20;99.90
61253;DHT22;47127;47.516;8.596;2023-09-30T07:40:37;18.30;99.90
61253;DHT22;47127;47.516;8.596;2023-09-30T07:43:03;18.20;99.90
61253;DHT22;47127;47.516;8.596;2023-09-30T07:45:29;18.20;99.90
61253;DHT22;47127;47.516;8.596;2023-09-30T07:47:55;18.20;99.90
61253;DHT22;47127;47.516;8.596;2023-09-30T07:50:20;18.30;99.90
61253;DHT22;47127;47.516;8.596;2023-09-30T07:52:46;18.30;99.90
61253;DHT22;47127;47.516;8.596;2023-09-30T07:55:12;18.30;99.90
61253;DHT22;47127;47.516;8.596;2023-09-30T07:57:41;18.30;99.90
61253;DHT22;47127;47.516;8.596;2023-09-30T08:00:08;18.40;99.90
61253;DHT22;47127;47.516;8.596;2023-09-30T08:02:35;18.50;99.90
61253;DHT22;47127;47.516;8.596;2023-09-30T08:05:02;18.60;99.90
61253;DHT22;47127;47.516;8.596;2023-09-30T08:07:28;18.70;99.90
61253;DHT22;47127;47.516;8.596;2023-09-30T08:09:53;18.80;99.90
61253;DHT22;47127;47.516;8.596;2023-09-30T08:12:19;18.90;99.90
61253;DHT22;47127;47.516;8.596;2023-09-30T08:14:45;19.00;99.90
61253;DHT22;47127;47.516;8.596;2023-09-30T08:17:11;19.10;99.90
61253;DHT22;47127;47.516;8.596;2023-09-30T08:19:37;19.10;99.90
61253;DHT22;47127;47.516;8.596;2023-09-30T08:22:03;19.10;99.90
61253;DHT22;47127;47.516;8.596;2023-09-30T08:24:29;19.20;99.90
61253;DHT22;47127;47.516;8.596;2023-09-30T08:26:55;19.30;99.90
61253;DHT22;47127;47.516;8.596;2023-09-30T08:29:22;19.40;99.90
61253;DHT22;47127;47.516;8.596;2023-09-30T08:31:47;19.40;99.90
61253;DHT22;47127;47.516;8.596;2023-09-30T08:34:13;19.40;99.90
61253;DHT22;47127;47.516;8.596;2023-09-30T08:36:40;19.40;99.90
61253;DHT22;47127;47.516;8.596;2023-09-30T08:39:07;19.50;99.90
61253;DHT22;47127;47.516;8.596;2023-09-30T08:41:34;19.50;99.90
61253;DHT22;47127;47.516;8.596;2023-09-30T08:44:01;19.40;99.90
61253;DHT22;47127;47.516;8.596;2023-09-30T08:46:34;19.50;99.90
61253;DHT22;47127;47.516;8.596;2023-09-30T08:49:01;19.60;99.90
61253;DHT22;47127;47.516;8.596;2023-09-30T08:51:29;19.70;99.90
61253;DHT22;47127;47.516;8.596;2023-09-30T08:53:55;19.70;99.90
61253;DHT22;47127;47.516;8.596;2023-09-30T08:56:24;19.90;99.90
61253;DHT22;47127;47.516;8.596;2023-09-30T08:58:53;20.00;99.90
61253;DHT22;47127;47.516;8.596;2023-09-30T09:01:20;20.00;99.90
61253;DHT22;47127;47.516;8.596;2023-09-30T09:03:45;19.90;99.90
61253;DHT22;47127;47.516;8.596;2023-09-30T09:06:18;20.00;99.90
61253;DHT22;47127;47.516;8.596;2023-09-30T09:08:44;20.10;99.90
61253;DHT22;47127;47.516;8.596;2023-09-30T09:11:10;20.20;99.90
61253;DHT22;47127;47.516;8.596;2023-09-30T09:13:50;20.20;99.90
61253;DHT22;47127;47.516;8.596;2023-09-30T09:16:19;20.30;99.90
61253;DHT22;47127;47.516;8.596;2023-09-30T09:18:46;20.30;99.90
61253;DHT22;47127;47.516;8.596;2023-09-30T09:21:18;20.30;99.90
61253;DHT22;47127;47.516;8.596;2023-09-30T09:23:47;20.40;99.90
61253;DHT22;47127;47.516;8.596;2023-09-30T09:28:53;20.60;99.90
61253;DHT22;47127;47.516;8.596;2023-09-30T09:31:29;20.80;99.90
61253;DHT22;47127;47.516;8.596;2023-09-30T09:33:55;20.90;99.90
61253;DHT22;47127;47.516;8.596;2023-09-30T09:36:21;21.10;99.90
61253;DHT22;47127;47.516;8.596;2023-09-30T09:39:03;21.20;99.90
61253;DHT22;47127;47.516;8.596;2023-09-30T09:41:28;21.10;99.90
61253;DHT22;47127;47.516;8.596;2023-09-30T09:43:55;21.10;99.90
61253;DHT22;47127;47.516;8.596;2023-09-30T09:46:24;21.00;99.90
61253;DHT22;47127;47.516;8.596;2023-09-30T09:48:52;21.00;99.90
61253;DHT22;47127;47.516;8.596;2023-09-30T09:51:20;21.30;99.90
61253;DHT22;47127;47.516;8.596;2023-09-30T09:53:46;21.30;99.90
61253;DHT22;47127;47.516;8.596;2023-09-30T09:56:15;21.50;99.90
61253;DHT22;47127;47.516;8.596;2023-09-30T09:58:42;21.60;99.90
61253;DHT22;47127;47.516;8.596;2023-09-30T10:01:09;21.70;99.90
61253;DHT22;47127;47.516;8.596;2023-09-30T10:03:37;21.70;99.90
61253;DHT22;47127;47.516;8.596;2023-09-30T10:06:03;21.80;99.90
61253;DHT22;47127;47.516;8.596;2023-09-30T10:08:38;21.70;99.90
61253;DHT22;47127;47.516;8.596;2023-09-30T10:11:06;21.60;99.90
61253;DHT22;47127;47.516;8.596;2023-09-30T10:19:16;21.80;99.90
61253;DHT22;47127;47.516;8.596;2023-09-30T10:22:23;22.10;99.90
61253;DHT22;47127;47.516;8.596;2023-09-30T10:24:50;22.00;99.90
61253;DHT22;47127;47.516;8.596;2023-09-30T10:35:17;22.40;99.90
61253;DHT22;47127;47.516;8.596;2023-09-30T10:37:44;22.20;99.90
61253;DHT22;47127;47.516;8.596;2023-09-30T10:40:26;22.10;99.90
61253;DHT22;47127;47.516;8.596;2023-09-30T10:42:52;22.20;99.90
61253;DHT22;47127;47.516;8.596;2023-09-30T10:51:13;22.20;99.90
61253;DHT22;47127;47.516;8.596;2023-09-30T10:53:42;22.50;99.90
61253;DHT22;47127;47.516;8.596;2023-09-30T10:56:08;22.50;99.90
61253;DHT22;47127;47.516;8.596;2023-09-30T10:58:51;22.50;99.90
61253;DHT22;47127;47.516;8.596;2023-09-30T11:01:19;22.70;99.90
61253;DHT22;47127;47.516;8.596;2023-09-30T11:03:46;22.70;99.90
61253;DHT22;47127;47.516;8.596;2023-09-30T11:06:13;22.50;99.90
61253;DHT22;47127;47.516;8.596;2023-09-30T11:08:46;22.40;99.90
61253;DHT22;47127;47.516;8.596;2023-09-30T11:11:12;22.40;99.90
61253;DHT22;47127;47.516;8.596;2023-09-30T11:13:39;22.40;99.90
61253;DHT22;47127;47.516;8.596;2023-09-30T11:16:05;22.50;99.90
61253;DHT22;47127;47.516;8.596;2023-09-30T11:18:32;22.60;99.90
61253;DHT22;47127;47.516;8.596;2023-09-30T11:23:32;23.10;99.60
61253;DHT22;47127;47.516;8.596;2023-09-30T11:25:58;23.20;99.50
61253;DHT22;47127;47.516;8.596;2023-09-30T11:28:24;23.30;99.20
61253;DHT22;47127;47.516;8.596;2023-09-30T11:30:59;23.30;98.90
61253;DHT22;47127;47.516;8.596;2023-09-30T11:33:25;23.10;99.00
61253;DHT22;47127;47.516;8.596;2023-09-30T11:36:04;23.00;98.90
61253;DHT22;47127;47.516;8.596;2023-09-30T11:38:32;23.10;98.80
61253;DHT22;47127;47.516;8.596;2023-09-30T11:41:05;23.10;98.80
61253;DHT22;47127;47.516;8.596;2023-09-30T11:43:32;23.30;98.50
61253;DHT22;47127;47.516;8.596;2023-09-30T11:46:11;23.30;98.30
61253;DHT22;47127;47.516;8.596;2023-09-30T11:48:56;23.30;98.20
61253;DHT22;47127;47.516;8.596;2023-09-30T11:51:23;23.40;97.90
61253;DHT22;47127;47.516;8.596;2023-09-30T11:53:53;23.60;98.20
61253;DHT22;47127;47.516;8.596;2023-09-30T11:56:23;23.50;98.00
61253;DHT22;47127;47.516;8.596;2023-09-30T11:58:56;23.70;97.60
61253;DHT22;47127;47.516;8.596;2023-09-30T12:01:22;23.90;97.40
61253;DHT22;47127;47.516;8.596;2023-09-30T12:03:50;24.20;97.40
61253;DHT22;47127;47.516;8.596;2023-09-30T12:06:17;24.70;96.80
61253;DHT22;47127;47.516;8.596;2023-09-30T12:08:43;24.80;96.20
61253;DHT22;47127;47.516;8.596;2023-09-30T12:11:09;24.50;96.00
61253;DHT22;47127;47.516;8.596;2023-09-30T12:13:38;24.20;96.50
61253;DHT22;47127;47.516;8.596;2023-09-30T12:16:04;24.10;96.90
61253;DHT22;47127;47.516;8.596;2023-09-30T12:18:29;24.50;96.60
61253;DHT22;47127;47.516;8.596;2023-09-30T12:20:55;24.90;96.40
61253;DHT22;47127;47.516;8.596;2023-09-30T12:23:23;25.00;96.50
61253;DHT22;47127;47.516;8.596;2023-09-30T12:25:49;24.60;96.90
61253;DHT22;47127;47.516;8.596;2023-09-30T12:28:14;24.40;97.10
61253;DHT22;47127;47.516;8.596;2023-09-30T12:30:41;24.20;97.60
61253;DHT22;47127;47.516;8.596;2023-09-30T12:33:07;24.20;97.50
61253;DHT22;47127;47.516;8.596;2023-09-30T12:35:33;24.30;97.50
61253;DHT22;47127;47.516;8.596;2023-09-30T12:37:59;24.30;97.60
61253;DHT22;47127;47.516;8.596;2023-09-30T12:40:25;24.10;97.90
61253;DHT22;47127;47.516;8.596;2023-09-30T12:42:51;24.20;97.40
61253;DHT22;47127;47.516;8.596;2023-09-30T12:45:16;24.10;97.90
61253;DHT22;47127;47.516;8.596;2023-09-30T12:47:44;23.90;97.90
61253;DHT22;47127;47.516;8.596;2023-09-30T12:50:10;23.80;97.80
61253;DHT22;47127;47.516;8.596;2023-09-30T12:52:36;23.60;97.70
61253;DHT22;47127;47.516;8.596;2023-09-30T12:55:02;23.60;97.50
61253;DHT22;47127;47.516;8.596;2023-09-30T12:57:29;23.80;98.10
61253;DHT22;47127;47.516;8.596;2023-09-30T13:00:00;23.80;97.50
61253;DHT22;47127;47.516;8.596;2023-09-30T13:02:26;23.80;97.40
61253;DHT22;47127;47.516;8.596;2023-09-30T13:04:52;23.80;97.90
61253;DHT22;47127;47.516;8.596;2023-09-30T13:07:19;23.70;97.60
61253;DHT22;47127;47.516;8.596;2023-09-30T13:09:45;23.60;97.70
61253;DHT22;47127;47.516;8.596;2023-09-30T13:12:11;23.50;97.60
61253;DHT22;47127;47.516;8.596;2023-09-30T13:14:37;23.50;97.70
61253;DHT22;47127;47.516;8.596;2023-09-30T13:17:04;23.50;97.70
61253;DHT22;47127;47.516;8.596;2023-09-30T13:19:29;23.50;98.00
61253;DHT22;47127;47.516;8.596;2023-09-30T13:21:55;23.50;97.60
61253;DHT22;47127;47.516;8.596;2023-09-30T13:24:21;23.50;97.70
61253;DHT22;47127;47.516;8.596;2023-09-30T13:26:47;23.50;97.70
61253;DHT22;47127;47.516;8.596;2023-09-30T13:29:14;23.50;97.70
61253;DHT22;47127;47.516;8.596;2023-09-30T13:31:42;23.40;97.40
61253;DHT22;47127;47.516;8.596;2023-09-30T13:34:08;23.40;97.20
61253;DHT22;47127;47.516;8.596;2023-09-30T13:36:34;23.60;97.00
61253;DHT22;47127;47.516;8.596;2023-09-30T13:38:59;23.80;96.80
61253;DHT22;47127;47.516;8.596;2023-09-30T13:41:26;24.00;96.30
61253;DHT22;47127;47.516;8.596;2023-09-30T13:43:52;24.00;96.20
61253;DHT22;47127;47.516;8.596;2023-09-30T13:46:18;24.20;96.20
61253;DHT22;47127;47.516;8.596;2023-09-30T13:48:44;24.30;96.30
61253;DHT22;47127;47.516;8.596;2023-09-30T13:51:10;24.70;96.20
61253;DHT22;47127;47.516;8.596;2023-09-30T13:53:36;24.90;95.50
61253;DHT22;47127;47.516;8.596;2023-09-30T13:56:02;24.80;95.30
61253;DHT22;47127;47.516;8.596;2023-09-30T13:58:29;24.70;94.70
61253;DHT22;47127;47.516;8.596;2023-09-30T14:00:55;24.50;94.80
61253;DHT22;47127;47.516;8.596;2023-09-30T14:03:22;24.50;94.70
61253;DHT22;47127;47.516;8.596;2023-09-30T14:05:50;24.40;94.40
61253;DHT22;47127;47.516;8.596;2023-09-30T14:08:15;24.30;94.90
61253;DHT22;47127;47.516;8.596;2023-09-30T14:10:42;24.00;95.40
61253;DHT22;47127;47.516;8.596;2023-09-30T14:13:09;24.00;95.70
61253;DHT22;47127;47.516;8.596;2023-09-30T14:15:35;23.80;95.70
61253;DHT22;47127;47.516;8.596;2023-09-30T14:18:02;23.70;95.80
61253;DHT22;47127;47.516;8.596;2023-09-30T14:20:28;23.50;95.80
61253;DHT22;47127;47.516;8.596;2023-09-30T14:22:54;23.50;95.60
61253;DHT22;47127;47.516;8.596;2023-09-30T14:25:22;23.50;95.50
61253;DHT22;47127;47.516;8.596;2023-09-30T14:27:51;23.40;95.80
61253;DHT22;47127;47.516;8.596;2023-09-30T14:30:17;23.30;95.90
61253;DHT22;47127;47.516;8.596;2023-09-30T14:32:43;23.30;95.70
61253;DHT22;47127;47.516;8.596;2023-09-30T14:35:09;23.30;95.80
61253;DHT22;47127;47.516;8.596;2023-09-30T14:37:35;23.10;96.00
61253;DHT22;47127;47.516;8.596;2023-09-30T14:40:02;23.20;96.30
61253;DHT22;47127;47.516;8.596;2023-09-30T14:42:31;23.30;96.60
61253;DHT22;47127;47.516;8.596;2023-09-30T14:44:57;23.30;96.70
61253;DHT22;47127;47.516;8.596;2023-09-30T14:47:23;23.40;96.20
61253;DHT22;47127;47.516;8.596;2023-09-30T14:49:48;23.40;96.20
61253;DHT22;47127;47.516;8.596;2023-09-30T14:52:14;23.40;96.70
61253;DHT22;47127;47.516;8.596;2023-09-30T14:54:41;23.60;97.00
61253;DHT22;47127;47.516;8.596;2023-09-30T14:57:07;23.70;96.80
61253;DHT22;47127;47.516;8.596;2023-09-30T14:59:35;23.70;96.80
61253;DHT22;47127;47.516;8.596;2023-09-30T15:02:01;23.70;97.00
61253;DHT22;47127;47.516;8.596;2023-09-30T15:04:26;23.70;97.00
61253;DHT22;47127;47.516;8.596;2023-09-30T15:06:54;23.90;97.00
61253;DHT22;47127;47.516;8.596;2023-09-30T15:09:20;24.10;97.00
61253;DHT22;47127;47.516;8.596;2023-09-30T15:11:46;24.30;96.90
61253;DHT22;47127;47.516;8.596;2023-09-30T15:14:11;24.40;96.90
61253;DHT22;47127;47.516;8.596;2023-09-30T15:16:37;24.50;96.80
61253;DHT22;47127;47.516;8.596;2023-09-30T15:19:03;24.40;97.00
61253;DHT22;47127;47.516;8.596;2023-09-30T15:21:28;24.40;96.60
61253;DHT22;47127;47.516;8.596;2023-09-30T15:23:54;24.20;96.60
61253;DHT22;47127;47.516;8.596;2023-09-30T15:26:19;23.80;96.80
61253;DHT22;47127;47.516;8.596;2023-09-30T15:28:45;23.50;97.20
61253;DHT22;47127;47.516;8.596;2023-09-30T15:31:11;23.40;97.50
61253;DHT22;47127;47.516;8.596;2023-09-30T15:33:37;23.30;98.00
61253;DHT22;47127;47.516;8.596;2023-09-30T15:36:12;23.10;98.40
61253;DHT22;47127;47.516;8.596;2023-09-30T15:38:38;23.20;98.40
61253;DHT22;47127;47.516;8.596;2023-09-30T15:41:04;26.50;99.30
61253;DHT22;47127;47.516;8.596;2023-09-30T15:43:33;23.60;97.50
61253;DHT22;47127;47.516;8.596;2023-09-30T15:46:01;23.70;97.60
61253;DHT22;47127;47.516;8.596;2023-09-30T15:48:27;23.70;97.60
61253;DHT22;47127;47.516;8.596;2023-09-30T15:50:52;23.60;97.40
61253;DHT22;47127;47.516;8.596;2023-09-30T15:53:18;23.60;97.50